모두
Kalmar Airport (Kalmar) KLR 기상
|
Kalmar (KLR / ESMQ)
맑은 하늘
바람이 붐 |
|
23 °C |
KLR 터미널 지역 예측
| Date | Time (CEST) | Flight Rules | Wind Dir. | Speed | Type | Height AGL (ft) | Visibility | Remarks | ||||||
|---|---|---|---|---|---|---|---|---|---|---|---|---|---|---|
최근 KLR METAR 이력
| Date | Time (CEST) | Flight Rules | Wind Dir. | Speed | Type | Height AGL (ft) | Visibility | Temp (°C) | Temp (°F) | Dew Point (°C) | Dew Point (°F) | Rel. Humid. | Pressure | Density Altitude | Remarks |
|---|---|---|---|---|---|---|---|---|---|---|---|---|---|---|---|
| 02-5월 | 17:20 | VFR | 210° | 12 kt | 10000 meters | 23° | 73° | 5° | 41° | 31% | 1013 mb | 983 ft | |||
| 02-5월 | 16:50 | VFR | 200° | 15 kt | 10000 meters | 23° | 73° | 6° | 42° | 33% | 1013 mb | 983 ft | |||
| 02-5월 | 16:20 | VFR | 170° | 13 kt | 10000 meters | 24° | 75° | 9° | 48° | 38% | 1014 mb | 1,074 ft | |||
| 02-5월 | 15:50 | VFR | 210° | 14 kt | 10000 meters | 23° | 73° | 6° | 42° | 33% | 1014 mb | 954 ft | |||
| 02-5월 | 15:20 | VFR | 170° | 14 kt | 10000 meters | 24° | 75° | 5° | 41° | 29% | 1015 mb | 1,044 ft | |||
| 02-5월 | 14:50 | VFR | 220° | 15 kt | 10000 meters | 23° | 73° | 4° | 39° | 29% | 1015 mb | 924 ft | |||
| 02-5월 | 14:20 | VFR | 180° | 14 kt | 10000 meters | 24° | 75° | 4° | 39° | 27% | 1016 mb | 1,015 ft | |||
| 02-5월 | 13:50 | VFR | 180° | 14 kt | 10000 meters | 24° | 75° | 4° | 39° | 27% | 1016 mb | 1,015 ft | |||
| 02-5월 | 13:20 | VFR | 170° | 13 kt | 10000 meters | 22° | 71° | 6° | 42° | 35% | 1016 mb | 775 ft | |||
| 02-5월 | 12:50 | VFR | 170° | 12 kt | 10000 meters | 23° | 73° | 3° | 37° | 27% | 1017 mb | 865 ft | |||
| 02-5월 | 12:20 | VFR | 210° | 13 kt | 10000 meters | 23° | 73° | 5° | 41° | 31% | 1017 mb | 865 ft | |||
| 02-5월 | 11:50 | VFR | 170° | 12 kt | 10000 meters | 23° | 73° | 5° | 41° | 31% | 1018 mb | 835 ft | |||
| 02-5월 | 11:20 | VFR | 170° | 11 kt | 10000 meters | 22° | 71° | 4° | 39° | 31% | 1018 mb | 715 ft | |||
| 02-5월 | 10:50 | VFR | 170° | 10 kt | 10000 meters | 17° | 62° | 9° | 48° | 59% | 1018 mb | 115 ft | |||
| 02-5월 | 10:20 | VFR | 160° | 10 kt | 10000 meters | 17° | 62° | 9° | 48° | 59% | 1019 mb | 86 ft | |||
| 02-5월 | 09:50 | VFR | 170° | 10 kt | 10000 meters | 17° | 62° | 8° | 46° | 55% | 1019 mb | 86 ft | |||
| 02-5월 | 09:20 | VFR | 220° | 8 kt | 10000 meters | 19° | 66° | 6° | 42° | 43% | 1020 mb | 296 ft | |||
| 02-5월 | 08:50 | VFR | 210° | 7 kt | 10000 meters | 18° | 64° | 5° | 41° | 42% | 1020 mb | 176 ft | |||
| 02-5월 | 08:20 | VFR | 240° | 6 kt | 10000 meters | 17° | 62° | 5° | 41° | 45% | 1020 mb | 56 ft | |||
| 02-5월 | 07:50 | VFR | 240° | 4 kt | 10000 meters | 15° | 59° | 5° | 41° | 51% | 1020 mb | -184 ft | |||
| 02-5월 | 07:20 | VFR | 240° | 5 kt | 10000 meters | 13° | 55° | 5° | 41° | 58% | 1020 mb | -424 ft | |||
| 02-5월 | 06:50 | VFR | 230° | 3 kt | 10000 meters | 12° | 53° | 4° | 39° | 58% | 1020 mb | -544 ft | |||
| 02-5월 | 06:20 | VFR | 250° | 4 kt | 10000 meters | 11° | 51° | 3° | 37° | 58% | 1020 mb | -664 ft | |||
| 02-5월 | 05:50 | VFR | 250° | 5 kt | 10000 meters | 11° | 51° | 3° | 37° | 58% | 1020 mb | -664 ft |
로그인
| 귀하의 브라우저는 지원되지 않습니다.. 브라우저를 업그레이드하세요 |
